createdAt,value
2023-04-02T00:00:14.442Z,69.97
2023-04-02T00:03:15.942Z,70.04
2023-04-02T00:06:34.827Z,69.81
2023-04-02T00:09:38.081Z,69.94
2023-04-02T00:12:39.548Z,69.78
2023-04-02T00:15:43.855Z,69.56
2023-04-02T00:18:53.692Z,70.21
2023-04-02T00:21:57.657Z,70.37
2023-04-02T00:25:07.680Z,70.33
2023-04-02T00:28:14.191Z,69.67
2023-04-02T00:31:18.571Z,70.41
2023-04-02T00:34:32.522Z,71.72
2023-04-02T00:37:42.155Z,70.57
2023-04-02T00:40:43.818Z,70.41
2023-04-02T00:43:46.819Z,69.63
2023-04-02T00:46:50.045Z,69.87
2023-04-02T00:49:58.970Z,68.66
2023-04-02T00:53:08.541Z,70.04
2023-04-02T00:56:19.724Z,69.80
2023-04-02T00:59:35.642Z,69.75
2023-04-02T01:02:38.362Z,70.25
2023-04-02T01:05:42.402Z,70.17
2023-04-02T01:08:56.242Z,70.23
2023-04-02T01:12:03.655Z,70.05
2023-04-02T01:15:18.296Z,71.08
2023-04-02T01:18:37.786Z,70.60
2023-04-02T01:22:00.190Z,70.84
2023-04-02T01:25:04.543Z,71.13
2023-04-02T01:28:31.960Z,71.23
2023-04-02T01:31:34.592Z,70.56
2023-04-02T01:34:37.824Z,70.12
2023-04-02T01:37:53.139Z,69.73
2023-04-02T01:41:24.719Z,70.15
2023-04-02T01:44:39.256Z,69.73
2023-04-02T01:47:41.173Z,69.34
2023-04-02T01:50:45.342Z,68.45
2023-04-02T01:53:47.883Z,68.59
2023-04-02T01:56:50.478Z,68.23
2023-04-02T01:59:52.155Z,69.38
2023-04-02T02:02:53.967Z,68.89
2023-04-02T02:05:56.622Z,69.55
2023-04-02T02:09:03.655Z,69.74
2023-04-02T02:12:05.689Z,69.34
2023-04-02T02:15:17.542Z,69.32
2023-04-02T02:18:27.401Z,69.63
2023-04-02T02:21:39.724Z,70.48
2023-04-02T02:24:42.108Z,71.00
2023-04-02T02:28:00.163Z,70.66
2023-04-02T02:31:17.942Z,71.17
2023-04-02T02:34:29.724Z,70.78
2023-04-02T02:37:39.325Z,70.41
2023-04-02T02:40:46.134Z,70.69
2023-04-02T02:44:02.143Z,70.63
2023-04-02T02:47:13.541Z,71.25
2023-04-02T02:50:22.930Z,72.10
2023-04-02T02:53:24.992Z,71.26
2023-04-02T02:56:31.169Z,71.23
2023-04-02T02:59:33.635Z,71.51
2023-04-02T03:02:38.955Z,70.78
2023-04-02T03:05:43.037Z,72.25
2023-04-02T03:09:20.521Z,71.04
2023-04-02T03:12:47.245Z,71.82
2023-04-02T03:16:20.620Z,72.61
2023-04-02T03:19:29.762Z,73.02
2023-04-02T03:22:38.137Z,72.46
2023-04-02T03:25:46.351Z,72.21
2023-04-02T03:28:56.241Z,73.11
2023-04-02T03:32:03.846Z,72.85
2023-04-02T03:35:22.400Z,72.46
2023-04-02T03:38:32.789Z,72.24
2023-04-02T03:41:47.710Z,72.17
2023-04-02T03:45:06.092Z,72.29
2023-04-02T03:48:18.265Z,72.67
2023-04-02T03:51:37.262Z,72.33
2023-04-02T03:54:40.151Z,73.00
2023-04-02T03:58:00.746Z,72.43
2023-04-02T04:01:03.763Z,71.85
2023-04-02T04:04:13.352Z,72.33
2023-04-02T04:07:22.557Z,71.46
2023-04-02T04:10:26.149Z,71.89
2023-04-02T04:13:39.396Z,71.24
2023-04-02T04:17:04.715Z,71.32
2023-04-02T04:20:23.254Z,71.18
2023-04-02T04:23:35.955Z,71.83
2023-04-02T04:26:42.881Z,72.39
2023-04-02T04:30:28.736Z,71.64
2023-04-02T04:33:40.033Z,71.36
2023-04-02T04:36:54.795Z,71.52
2023-04-02T04:40:11.244Z,71.38
2023-04-02T04:43:18.827Z,71.93
2023-04-02T04:46:30.007Z,71.54
2023-04-02T04:49:40.423Z,71.12
2023-04-02T04:52:43.705Z,71.83
2023-04-02T04:55:50.222Z,71.44
2023-04-02T04:59:05.702Z,72.63
2023-04-02T05:02:17.982Z,71.75
2023-04-02T05:05:27.171Z,72.63
2023-04-02T05:08:35.552Z,72.24
2023-04-02T05:11:47.431Z,72.32
2023-04-02T05:14:58.318Z,72.43
2023-04-02T05:18:27.240Z,72.75
2023-04-02T05:21:49.870Z,73.12
2023-04-02T05:24:58.132Z,73.37
2023-04-02T05:28:21.146Z,73.00
2023-04-02T05:31:26.224Z,73.84
2023-04-02T05:34:35.040Z,73.44
2023-04-02T05:37:39.401Z,74.34
2023-04-02T05:40:44.361Z,73.95
2023-04-02T05:43:48.464Z,74.24
2023-04-02T05:46:56.881Z,74.05
2023-04-02T05:50:07.557Z,74.04
2023-04-02T05:53:29.086Z,73.90
2023-04-02T05:56:41.607Z,74.31
2023-04-02T06:00:08.589Z,74.24
2023-04-02T06:03:34.994Z,74.46
2023-04-02T06:06:39.809Z,74.56
2023-04-02T06:09:51.626Z,73.92
2023-04-02T06:13:03.127Z,73.77
2023-04-02T06:16:13.025Z,74.29
2023-04-02T06:19:30.937Z,74.16
2023-04-02T06:22:39.320Z,74.53
2023-04-02T06:25:58.915Z,74.46
2023-04-02T06:29:24.457Z,74.62
2023-04-02T06:32:28.277Z,74.44
2023-04-02T06:35:34.523Z,73.86
2023-04-02T06:38:39.056Z,73.85
2023-04-02T06:41:44.747Z,73.24
2023-04-02T06:45:14.340Z,73.42
2023-04-02T06:48:21.543Z,73.48
2023-04-02T06:51:30.206Z,72.69
2023-04-02T06:54:31.978Z,72.66
2023-04-02T06:57:38.487Z,71.83
2023-04-02T07:00:46.010Z,72.29
2023-04-02T07:03:53.311Z,71.75
2023-04-02T07:07:09.734Z,70.91
2023-04-02T07:10:14.247Z,71.23
2023-04-02T07:13:18.665Z,69.62
2023-04-02T07:16:25.300Z,72.00
2023-04-02T07:19:27.235Z,70.97
2023-04-02T07:22:31.767Z,70.63
2023-04-02T07:25:36.355Z,70.38
2023-04-02T07:28:38.025Z,71.44
2023-04-02T07:31:40.823Z,70.72
2023-04-02T07:34:42.314Z,70.72
2023-04-02T07:37:43.764Z,70.87
2023-04-02T07:40:45.333Z,71.13
2023-04-02T07:43:47.538Z,71.34
2023-04-02T07:46:49.116Z,71.20
2023-04-02T07:49:50.556Z,69.74
2023-04-02T07:52:52.358Z,69.76
2023-04-02T07:55:53.929Z,69.75
2023-04-02T07:58:55.682Z,70.00
2023-04-02T08:01:57.846Z,70.24
2023-04-02T08:04:59.337Z,70.15
2023-04-02T08:08:00.823Z,69.93
2023-04-02T08:11:02.242Z,69.65
2023-04-02T08:14:03.767Z,70.07
2023-04-02T08:17:05.697Z,69.96
2023-04-02T08:20:08.021Z,69.34
2023-04-02T08:23:15.313Z,70.10
2023-04-02T08:26:18.828Z,70.14
2023-04-02T08:29:21.041Z,70.31
2023-04-02T08:32:24.111Z,70.16
2023-04-02T08:35:26.417Z,69.57
2023-04-02T08:38:27.849Z,69.40
2023-04-02T08:41:31.039Z,69.33
2023-04-02T08:45:08.123Z,70.26
2023-04-02T08:48:15.718Z,70.34
2023-04-02T08:51:26.668Z,69.70
2023-04-02T08:54:31.279Z,69.58
2023-04-02T08:57:47.478Z,68.83
2023-04-02T09:00:53.686Z,68.79
2023-04-02T09:03:58.164Z,69.00
2023-04-02T09:07:01.548Z,69.54
2023-04-02T09:10:04.309Z,68.97
2023-04-02T09:13:19.924Z,68.04
2023-04-02T09:16:34.046Z,68.31
2023-04-02T09:19:38.661Z,68.26
2023-04-02T09:22:40.170Z,67.71
2023-04-02T09:25:51.209Z,67.05
2023-04-02T09:29:11.904Z,66.21
2023-04-02T09:32:33.583Z,66.63
2023-04-02T09:35:54.340Z,64.59
2023-04-02T09:39:02.074Z,64.01
2023-04-02T09:42:08.873Z,65.08
2023-04-02T09:45:24.061Z,65.46
2023-04-02T09:48:43.957Z,64.42
2023-04-02T09:51:45.726Z,64.55
2023-04-02T09:55:16.443Z,62.78
2023-04-02T09:58:18.450Z,63.26
2023-04-02T10:02:04.830Z,63.42
2023-04-02T10:05:18.864Z,62.37
2023-04-02T10:08:28.172Z,63.34
2023-04-02T10:11:46.418Z,63.37
2023-04-02T10:14:49.655Z,62.33
2023-04-02T10:18:00.194Z,61.36
2023-04-02T10:21:04.485Z,62.93
2023-04-02T10:24:17.335Z,62.53
2023-04-02T10:27:29.760Z,61.08
2023-04-02T10:30:34.399Z,61.48
2023-04-02T10:33:37.574Z,59.18
2023-04-02T10:36:58.700Z,60.38
2023-04-02T10:40:09.981Z,60.45
2023-04-02T10:43:32.737Z,60.51
2023-04-02T10:46:46.443Z,58.32
2023-04-02T10:50:13.637Z,58.88
2023-04-02T10:53:19.142Z,57.58
2023-04-02T10:56:22.761Z,57.42
2023-04-02T10:59:34.361Z,58.45
2023-04-02T11:02:59.030Z,56.87
2023-04-02T11:06:05.792Z,56.57
2023-04-02T11:09:15.927Z,56.78
2023-04-02T11:12:28.236Z,56.61
2023-04-02T11:15:30.348Z,57.06
2023-04-02T11:18:36.535Z,57.28
2023-04-02T11:21:51.033Z,57.42
2023-04-02T11:24:59.158Z,55.39
2023-04-02T11:28:27.945Z,55.77
2023-04-02T11:31:29.451Z,56.31
2023-04-02T11:35:02.947Z,53.50
2023-04-02T11:38:09.950Z,54.76
2023-04-02T11:41:11.455Z,54.42
2023-04-02T11:44:24.057Z,55.11
2023-04-02T11:47:27.494Z,53.14
2023-04-02T11:50:33.788Z,53.37
2023-04-02T11:53:35.786Z,54.45
2023-04-02T11:56:48.146Z,53.60
2023-04-02T12:00:05.054Z,53.20
2023-04-02T12:03:38.299Z,52.34
2023-04-02T12:07:04.324Z,52.74
2023-04-02T12:10:17.385Z,53.87
2023-04-02T12:13:20.662Z,52.60
2023-04-02T12:16:23.342Z,52.44
2023-04-02T12:19:26.645Z,52.54
2023-04-02T12:22:33.832Z,52.88
2023-04-02T12:25:40.817Z,53.54
2023-04-02T12:28:42.438Z,53.47
2023-04-02T12:31:46.432Z,53.44
2023-04-02T12:34:48.026Z,53.67
2023-04-02T12:37:52.694Z,55.04
2023-04-02T12:40:57.122Z,56.58
2023-04-02T12:44:05.042Z,57.61
2023-04-02T12:47:06.616Z,56.58
2023-04-02T12:50:15.410Z,55.71
2023-04-02T12:53:28.933Z,55.86
2023-04-02T12:56:30.572Z,54.81
2023-04-02T12:59:36.392Z,55.70
2023-04-02T13:02:46.076Z,55.81
2023-04-02T13:05:56.368Z,55.73
2023-04-02T13:08:59.069Z,56.40
2023-04-02T13:12:01.345Z,54.57
2023-04-02T13:15:04.109Z,54.00
2023-04-02T13:18:20.752Z,54.85
2023-04-02T13:21:28.588Z,55.00
2023-04-02T13:24:33.719Z,53.61
2023-04-02T13:27:35.116Z,54.39
2023-04-02T13:30:36.970Z,54.34
2023-04-02T13:33:38.478Z,55.92
2023-04-02T13:36:39.902Z,54.58
2023-04-02T13:39:41.329Z,55.39
2023-04-02T13:42:43.634Z,55.12
2023-04-02T13:45:48.472Z,54.72
2023-04-02T13:48:51.619Z,54.57
2023-04-02T13:51:59.413Z,54.11
2023-04-02T13:55:01.207Z,54.43
2023-04-02T13:58:03.506Z,54.44
2023-04-02T14:01:05.017Z,53.84
2023-04-02T14:04:07.438Z,53.82
2023-04-02T14:07:27.271Z,52.48
2023-04-02T14:11:17.092Z,50.57
2023-04-02T14:14:46.600Z,50.96
2023-04-02T14:18:09.064Z,52.59
2023-04-02T14:21:10.470Z,54.45
2023-04-02T14:24:17.399Z,54.99
2023-04-02T14:27:36.546Z,53.60
2023-04-02T14:30:52.521Z,55.46
2023-04-02T14:34:24.635Z,55.47
2023-04-02T14:37:47.935Z,55.99
2023-04-02T14:41:04.281Z,54.96
2023-04-02T14:44:08.399Z,55.66
2023-04-02T14:47:19.054Z,55.57
2023-04-02T14:50:28.521Z,55.62
2023-04-02T14:53:52.636Z,54.79
2023-04-02T14:56:59.210Z,54.74
2023-04-02T15:00:27.706Z,54.52
2023-04-02T15:03:35.729Z,54.76
2023-04-02T15:06:42.947Z,53.50
2023-04-02T15:10:04.574Z,53.80
2023-04-02T15:13:19.737Z,54.57
2023-04-02T15:16:23.400Z,55.01
2023-04-02T15:19:24.979Z,56.06
2023-04-02T15:22:40.547Z,58.37
2023-04-02T15:25:52.640Z,60.21
2023-04-02T15:29:29.447Z,61.34
2023-04-02T15:32:34.236Z,62.88
2023-04-02T15:35:45.486Z,63.83
2023-04-02T15:38:54.094Z,63.71
2023-04-02T15:42:17.472Z,64.72
2023-04-02T15:45:29.277Z,64.03
2023-04-02T15:48:49.310Z,64.51
2023-04-02T15:51:56.739Z,64.90
2023-04-02T15:55:20.965Z,64.91
2023-04-02T15:58:35.498Z,64.56
2023-04-02T16:01:59.654Z,64.39
2023-04-02T16:05:08.118Z,64.49
2023-04-02T16:08:28.239Z,64.64
2023-04-02T16:11:30.836Z,65.60
2023-04-02T16:14:33.690Z,66.69
2023-04-02T16:17:43.750Z,65.85
2023-04-02T16:20:51.954Z,65.27
2023-04-02T16:23:53.783Z,65.87
2023-04-02T16:27:16.331Z,66.91
2023-04-02T16:30:57.922Z,67.97
2023-04-02T16:34:14.836Z,66.20
2023-04-02T16:37:22.544Z,67.24
2023-04-02T16:41:08.284Z,66.81
2023-04-02T16:44:22.650Z,67.86
2023-04-02T16:47:50.400Z,67.00
2023-04-02T16:51:16.957Z,67.10
2023-04-02T16:54:39.305Z,67.14
2023-04-02T16:58:07.452Z,67.41
2023-04-02T17:01:33.962Z,66.94
2023-04-02T17:05:11.663Z,67.39
2023-04-02T17:08:24.124Z,67.45
2023-04-02T17:11:40.021Z,68.61
2023-04-02T17:14:58.856Z,67.71
2023-04-02T17:18:01.981Z,68.48
2023-04-02T17:21:07.349Z,68.68
2023-04-02T17:24:27.012Z,68.60
2023-04-02T17:27:37.207Z,68.66
2023-04-02T17:30:47.030Z,68.61
2023-04-02T17:33:49.226Z,69.08
2023-04-02T17:37:38.961Z,68.09
2023-04-02T17:40:59.412Z,67.81
2023-04-02T17:44:22.898Z,68.51
2023-04-02T17:48:05.873Z,68.51
2023-04-02T17:51:11.342Z,68.19
2023-04-02T17:54:30.809Z,68.48
2023-04-02T17:57:52.267Z,67.87
2023-04-02T18:01:18.507Z,68.88
2023-04-02T18:04:30.298Z,68.41
2023-04-02T18:07:39.500Z,68.66
2023-04-02T18:11:13.484Z,68.99
2023-04-02T18:14:42.896Z,69.61
2023-04-02T18:18:06.176Z,69.31
2023-04-02T18:21:38.198Z,69.07
2023-04-02T18:24:59.292Z,69.38
2023-04-02T18:28:10.215Z,69.21
2023-04-02T18:31:48.834Z,68.98
2023-04-02T18:35:11.139Z,68.65
2023-04-02T18:38:29.346Z,69.02
2023-04-02T18:42:05.060Z,68.62
2023-04-02T18:45:22.077Z,68.30
2023-04-02T18:48:29.631Z,67.66
2023-04-02T18:51:36.338Z,68.18
2023-04-02T18:54:46.000Z,67.93
2023-04-02T18:57:52.744Z,68.45
2023-04-02T19:00:56.249Z,69.00
2023-04-02T19:04:07.816Z,67.67
2023-04-02T19:07:16.284Z,67.87
2023-04-02T19:10:30.275Z,67.20
2023-04-02T19:13:31.771Z,67.77
2023-04-02T19:16:42.457Z,67.68
2023-04-02T19:19:53.807Z,67.58
2023-04-02T19:23:48.012Z,67.78
2023-04-02T19:26:56.503Z,68.42
2023-04-02T19:30:16.666Z,68.16
2023-04-02T19:33:48.263Z,67.16
2023-04-02T19:37:05.597Z,67.15
2023-04-02T19:40:12.942Z,68.00
2023-04-02T19:43:14.422Z,68.10
2023-04-02T19:46:16.291Z,68.25
2023-04-02T19:49:25.275Z,67.91
2023-04-02T19:52:26.798Z,68.22
2023-04-02T19:55:28.269Z,68.55
2023-04-02T19:58:31.838Z,68.63
2023-04-02T20:01:33.431Z,68.28
2023-04-02T20:04:35.047Z,67.01
2023-04-02T20:07:36.476Z,66.53
2023-04-02T20:10:38.275Z,66.14
2023-04-02T20:13:39.985Z,66.44
2023-04-02T20:16:42.699Z,65.76
2023-04-02T20:19:46.162Z,65.81
2023-04-02T20:22:48.547Z,65.60
2023-04-02T20:25:53.482Z,65.33
2023-04-02T20:28:54.929Z,64.86
2023-04-02T20:31:56.433Z,65.25
2023-04-02T20:34:58.025Z,66.11
2023-04-02T20:37:59.704Z,64.71
2023-04-02T20:41:02.773Z,63.97
2023-04-02T20:44:04.278Z,63.87
2023-04-02T20:47:07.093Z,63.29
2023-04-02T20:50:09.146Z,62.79
2023-04-02T20:53:11.133Z,62.63
2023-04-02T20:56:15.485Z,62.70
2023-04-02T20:59:17.550Z,61.87
2023-04-02T21:02:18.986Z,61.66
2023-04-02T21:05:20.401Z,61.58
2023-04-02T21:08:21.897Z,62.16
2023-04-02T21:11:24.094Z,61.37
2023-04-02T21:14:26.085Z,61.08
2023-04-02T21:17:27.696Z,60.96
2023-04-02T21:20:29.199Z,60.84
2023-04-02T21:23:31.304Z,60.02
2023-04-02T21:26:35.904Z,60.11
2023-04-02T21:29:37.347Z,59.90
2023-04-02T21:32:38.844Z,60.30
2023-04-02T21:35:40.475Z,61.07
2023-04-02T21:38:43.074Z,60.45
2023-04-02T21:41:46.655Z,60.07
2023-04-02T21:44:48.181Z,59.91
2023-04-02T21:47:49.631Z,59.64
2023-04-02T21:50:51.142Z,59.55
2023-04-02T21:53:55.946Z,59.62
2023-04-02T21:56:57.647Z,59.65
2023-04-02T21:59:59.479Z,59.76
2023-04-02T22:03:01.103Z,59.08
2023-04-02T22:06:14.273Z,59.33
2023-04-02T22:09:18.633Z,59.47
2023-04-02T22:12:20.372Z,58.63
2023-04-02T22:15:22.011Z,58.67
2023-04-02T22:18:23.523Z,58.92
2023-04-02T22:21:25.856Z,58.99
2023-04-02T22:24:27.401Z,58.00
2023-04-02T22:27:28.817Z,58.37
2023-04-02T22:30:31.209Z,58.44
2023-04-02T22:33:33.789Z,58.92
2023-04-02T22:36:35.891Z,59.18
2023-04-02T22:39:37.354Z,59.16
2023-04-02T22:42:38.763Z,58.79
2023-04-02T22:45:40.341Z,59.30
2023-04-02T22:48:42.639Z,58.65
2023-04-02T22:51:44.600Z,58.83
2023-04-02T22:54:46.146Z,59.85
2023-04-02T22:57:47.576Z,59.75
2023-04-02T23:00:49.150Z,59.93
2023-04-02T23:03:53.565Z,59.63
2023-04-02T23:06:55.711Z,58.80
2023-04-02T23:09:57.242Z,59.46
2023-04-02T23:12:58.634Z,59.32
2023-04-02T23:16:02.248Z,59.36
2023-04-02T23:19:03.944Z,58.71
2023-04-02T23:22:05.425Z,57.96
2023-04-02T23:25:07.034Z,57.96
2023-04-02T23:28:12.004Z,57.63
2023-04-02T23:31:15.950Z,57.69
2023-04-02T23:34:17.436Z,57.61
2023-04-02T23:37:18.864Z,57.61
2023-04-02T23:40:20.531Z,58.15
2023-04-02T23:43:21.974Z,58.08
2023-04-02T23:46:24.956Z,57.89
2023-04-02T23:49:27.027Z,56.28
2023-04-02T23:52:28.443Z,57.80
2023-04-02T23:55:29.929Z,56.68
2023-04-02T23:58:31.405Z,57.05
